Aledo, Texas
Current Conditions -  °F | °C
As of 7:52 AM on Saturday 25 Oct 2014 (Local Time) from KNFW Reporting Station
Clear Clear  
Wind Chill: 68°   Ceiling: Unl
Heat Index: 68°   Visibility: 10mi
Dew Point: 57°   Wind: 5mph
Humidity: 68%   Direction: 150°SSE
Pressure: 30.16"   Gusts: NA
Location:  32.7°N, 97.6°W
Report Text: KNFW 251252Z 15004KT 10SM CLR 20/14 A3016 RMK AO2 SLP195 T02000139 CHINO N VISNO N $
Loading
Personal Weather Stations






























Interactive Weather Map New forecast layout! Learn more

10-Day Weather Forecast

Advertisements
Track Severe Weather on mobile